sensor_id;sensor_type;location;lat;lon;timestamp;P1;durP1;ratioP1;P2;durP2;ratioP2
4921;SDS011;16625;53.624;10.106;2023-06-04T00:00:29;11.93;;;5.13;;
4921;SDS011;16625;53.624;10.106;2023-06-04T00:02:56;8.57;;;5.47;;
4921;SDS011;16625;53.624;10.106;2023-06-04T00:05:23;10.40;;;6.40;;
4921;SDS011;16625;53.624;10.106;2023-06-04T00:07:50;10.30;;;5.80;;
4921;SDS011;16625;53.624;10.106;2023-06-04T00:10:17;11.90;;;6.93;;
4921;SDS011;16625;53.624;10.106;2023-06-04T00:12:45;9.77;;;6.90;;
4921;SDS011;16625;53.624;10.106;2023-06-04T00:15:13;10.80;;;6.20;;
4921;SDS011;16625;53.624;10.106;2023-06-04T00:17:41;10.03;;;6.20;;
4921;SDS011;16625;53.624;10.106;2023-06-04T00:20:08;18.10;;;6.00;;
4921;SDS011;16625;53.624;10.106;2023-06-04T00:22:36;8.30;;;5.90;;
4921;SDS011;16625;53.624;10.106;2023-06-04T00:25:06;7.70;;;4.70;;
4921;SDS011;16625;53.624;10.106;2023-06-04T00:27:34;7.73;;;5.07;;
4921;SDS011;16625;53.624;10.106;2023-06-04T00:30:02;9.50;;;5.10;;
4921;SDS011;16625;53.624;10.106;2023-06-04T00:32:29;6.67;;;4.60;;
4921;SDS011;16625;53.624;10.106;2023-06-04T00:34:56;7.20;;;4.90;;
4921;SDS011;16625;53.624;10.106;2023-06-04T00:37:23;7.63;;;4.37;;
4921;SDS011;16625;53.624;10.106;2023-06-04T00:39:50;8.83;;;5.10;;
4921;SDS011;16625;53.624;10.106;2023-06-04T00:42:17;7.70;;;4.43;;
4921;SDS011;16625;53.624;10.106;2023-06-04T00:44:44;5.90;;;3.93;;
4921;SDS011;16625;53.624;10.106;2023-06-04T00:47:14;17.27;;;4.10;;
4921;SDS011;16625;53.624;10.106;2023-06-04T00:49:41;10.83;;;5.20;;
4921;SDS011;16625;53.624;10.106;2023-06-04T00:52:09;7.10;;;4.40;;
4921;SDS011;16625;53.624;10.106;2023-06-04T00:54:36;6.30;;;4.33;;
4921;SDS011;16625;53.624;10.106;2023-06-04T00:57:04;10.80;;;4.50;;
4921;SDS011;16625;53.624;10.106;2023-06-04T00:59:33;9.90;;;4.50;;
4921;SDS011;16625;53.624;10.106;2023-06-04T01:02:05;9.03;;;4.80;;
4921;SDS011;16625;53.624;10.106;2023-06-04T01:04:37;8.00;;;4.80;;
4921;SDS011;16625;53.624;10.106;2023-06-04T01:07:12;15.37;;;5.37;;
4921;SDS011;16625;53.624;10.106;2023-06-04T01:09:42;8.00;;;5.17;;
4921;SDS011;16625;53.624;10.106;2023-06-04T01:12:11;9.40;;;5.77;;
4921;SDS011;16625;53.624;10.106;2023-06-04T01:14:38;9.40;;;6.57;;
4921;SDS011;16625;53.624;10.106;2023-06-04T01:17:06;7.20;;;4.77;;
4921;SDS011;16625;53.624;10.106;2023-06-04T01:22:35;6.90;;;4.67;;
4921;SDS011;16625;53.624;10.106;2023-06-04T01:25:05;6.10;;;4.60;;
4921;SDS011;16625;53.624;10.106;2023-06-04T01:27:45;6.47;;;4.67;;
4921;SDS011;16625;53.624;10.106;2023-06-04T01:30:18;5.77;;;4.73;;
4921;SDS011;16625;53.624;10.106;2023-06-04T01:32:46;7.67;;;4.50;;
4921;SDS011;16625;53.624;10.106;2023-06-04T01:35:15;8.00;;;4.47;;
4921;SDS011;16625;53.624;10.106;2023-06-04T01:37:42;8.33;;;4.27;;
4921;SDS011;16625;53.624;10.106;2023-06-04T01:40:09;6.30;;;3.90;;
4921;SDS011;16625;53.624;10.106;2023-06-04T01:42:36;5.90;;;4.20;;
4921;SDS011;16625;53.624;10.106;2023-06-04T01:45:04;8.50;;;4.57;;
4921;SDS011;16625;53.624;10.106;2023-06-04T01:47:31;5.23;;;4.00;;
4921;SDS011;16625;53.624;10.106;2023-06-04T01:49:58;6.33;;;4.50;;
4921;SDS011;16625;53.624;10.106;2023-06-04T01:52:27;8.33;;;4.53;;
4921;SDS011;16625;53.624;10.106;2023-06-04T01:54:53;7.40;;;4.70;;
4921;SDS011;16625;53.624;10.106;2023-06-04T01:57:21;8.77;;;3.93;;
4921;SDS011;16625;53.624;10.106;2023-06-04T01:59:48;7.83;;;5.30;;
4921;SDS011;16625;53.624;10.106;2023-06-04T02:02:15;8.07;;;4.00;;
4921;SDS011;16625;53.624;10.106;2023-06-04T02:04:43;5.73;;;4.47;;
4921;SDS011;16625;53.624;10.106;2023-06-04T02:07:11;6.73;;;4.27;;
4921;SDS011;16625;53.624;10.106;2023-06-04T02:09:44;6.70;;;3.87;;
4921;SDS011;16625;53.624;10.106;2023-06-04T02:12:10;6.70;;;4.80;;
4921;SDS011;16625;53.624;10.106;2023-06-04T02:14:37;6.90;;;4.60;;
4921;SDS011;16625;53.624;10.106;2023-06-04T02:17:04;7.20;;;4.13;;
4921;SDS011;16625;53.624;10.106;2023-06-04T02:19:37;9.60;;;4.27;;
4921;SDS011;16625;53.624;10.106;2023-06-04T02:22:04;6.07;;;4.80;;
4921;SDS011;16625;53.624;10.106;2023-06-04T02:24:32;11.80;;;4.37;;
4921;SDS011;16625;53.624;10.106;2023-06-04T02:27:00;6.47;;;4.30;;
4921;SDS011;16625;53.624;10.106;2023-06-04T02:29:27;6.90;;;4.40;;
4921;SDS011;16625;53.624;10.106;2023-06-04T02:31:53;6.63;;;4.23;;
4921;SDS011;16625;53.624;10.106;2023-06-04T02:34:20;11.20;;;5.10;;
4921;SDS011;16625;53.624;10.106;2023-06-04T02:36:48;6.83;;;4.60;;
4921;SDS011;16625;53.624;10.106;2023-06-04T02:39:15;7.93;;;3.90;;
4921;SDS011;16625;53.624;10.106;2023-06-04T02:41:42;4.80;;;3.50;;
4921;SDS011;16625;53.624;10.106;2023-06-04T02:44:10;8.50;;;3.80;;
4921;SDS011;16625;53.624;10.106;2023-06-04T02:46:37;12.00;;;4.70;;
4921;SDS011;16625;53.624;10.106;2023-06-04T02:49:05;6.67;;;4.23;;
4921;SDS011;16625;53.624;10.106;2023-06-04T02:51:32;8.60;;;3.90;;
4921;SDS011;16625;53.624;10.106;2023-06-04T02:53:58;9.33;;;3.60;;
4921;SDS011;16625;53.624;10.106;2023-06-04T02:56:26;7.23;;;3.40;;
4921;SDS011;16625;53.624;10.106;2023-06-04T02:58:53;5.50;;;3.37;;
4921;SDS011;16625;53.624;10.106;2023-06-04T03:01:22;6.80;;;3.80;;
4921;SDS011;16625;53.624;10.106;2023-06-04T03:03:50;4.40;;;3.70;;
4921;SDS011;16625;53.624;10.106;2023-06-04T03:06:17;6.00;;;3.70;;
4921;SDS011;16625;53.624;10.106;2023-06-04T03:08:46;6.50;;;3.97;;
4921;SDS011;16625;53.624;10.106;2023-06-04T03:11:13;7.43;;;3.70;;
4921;SDS011;16625;53.624;10.106;2023-06-04T03:13:40;7.90;;;4.17;;
4921;SDS011;16625;53.624;10.106;2023-06-04T03:16:07;5.37;;;3.37;;
4921;SDS011;16625;53.624;10.106;2023-06-04T03:18:36;4.63;;;3.80;;
4921;SDS011;16625;53.624;10.106;2023-06-04T03:21:03;4.20;;;3.53;;
4921;SDS011;16625;53.624;10.106;2023-06-04T03:23:30;4.53;;;3.10;;
4921;SDS011;16625;53.624;10.106;2023-06-04T03:25:58;4.93;;;3.67;;
4921;SDS011;16625;53.624;10.106;2023-06-04T03:28:25;7.00;;;3.60;;
4921;SDS011;16625;53.624;10.106;2023-06-04T03:30:51;6.10;;;3.60;;
4921;SDS011;16625;53.624;10.106;2023-06-04T03:33:18;5.83;;;3.70;;
4921;SDS011;16625;53.624;10.106;2023-06-04T03:35:47;5.57;;;3.47;;
4921;SDS011;16625;53.624;10.106;2023-06-04T03:38:14;4.93;;;3.20;;
4921;SDS011;16625;53.624;10.106;2023-06-04T03:40:42;5.10;;;3.50;;
4921;SDS011;16625;53.624;10.106;2023-06-04T03:43:10;6.23;;;4.00;;
4921;SDS011;16625;53.624;10.106;2023-06-04T03:45:36;9.77;;;4.03;;
4921;SDS011;16625;53.624;10.106;2023-06-04T03:48:03;5.53;;;4.10;;
4921;SDS011;16625;53.624;10.106;2023-06-04T03:50:30;5.53;;;3.80;;
4921;SDS011;16625;53.624;10.106;2023-06-04T03:52:59;5.80;;;3.60;;
4921;SDS011;16625;53.624;10.106;2023-06-04T03:55:26;6.20;;;4.10;;
4921;SDS011;16625;53.624;10.106;2023-06-04T03:57:52;7.47;;;3.57;;
4921;SDS011;16625;53.624;10.106;2023-06-04T04:00:19;5.80;;;4.10;;
4921;SDS011;16625;53.624;10.106;2023-06-04T04:02:47;5.63;;;3.40;;
4921;SDS011;16625;53.624;10.106;2023-06-04T04:05:15;10.17;;;4.03;;
4921;SDS011;16625;53.624;10.106;2023-06-04T04:07:42;4.30;;;3.47;;
4921;SDS011;16625;53.624;10.106;2023-06-04T04:10:10;6.83;;;3.80;;
4921;SDS011;16625;53.624;10.106;2023-06-04T04:12:37;5.17;;;3.60;;
4921;SDS011;16625;53.624;10.106;2023-06-04T04:15:04;7.57;;;4.07;;
4921;SDS011;16625;53.624;10.106;2023-06-04T04:17:31;9.13;;;3.73;;
4921;SDS011;16625;53.624;10.106;2023-06-04T04:19:58;8.67;;;3.57;;
4921;SDS011;16625;53.624;10.106;2023-06-04T04:22:26;6.90;;;3.63;;
4921;SDS011;16625;53.624;10.106;2023-06-04T04:24:53;6.07;;;3.07;;
4921;SDS011;16625;53.624;10.106;2023-06-04T04:27:21;7.63;;;3.43;;
4921;SDS011;16625;53.624;10.106;2023-06-04T04:29:48;7.60;;;3.10;;
4921;SDS011;16625;53.624;10.106;2023-06-04T04:32:15;9.40;;;3.90;;
4921;SDS011;16625;53.624;10.106;2023-06-04T04:34:49;5.60;;;3.57;;
4921;SDS011;16625;53.624;10.106;2023-06-04T04:37:17;4.00;;;2.87;;
4921;SDS011;16625;53.624;10.106;2023-06-04T04:39:46;6.27;;;3.30;;
4921;SDS011;16625;53.624;10.106;2023-06-04T04:42:14;6.10;;;3.10;;
4921;SDS011;16625;53.624;10.106;2023-06-04T04:44:43;12.33;;;3.60;;
4921;SDS011;16625;53.624;10.106;2023-06-04T04:47:13;5.90;;;3.60;;
4921;SDS011;16625;53.624;10.106;2023-06-04T04:49:39;5.57;;;3.93;;
4921;SDS011;16625;53.624;10.106;2023-06-04T04:52:07;5.67;;;3.50;;
4921;SDS011;16625;53.624;10.106;2023-06-04T04:54:33;5.50;;;3.00;;
4921;SDS011;16625;53.624;10.106;2023-06-04T04:57:00;8.57;;;3.57;;
4921;SDS011;16625;53.624;10.106;2023-06-04T04:59:27;3.73;;;3.17;;
4921;SDS011;16625;53.624;10.106;2023-06-04T05:01:55;4.60;;;3.40;;
4921;SDS011;16625;53.624;10.106;2023-06-04T05:04:22;5.90;;;3.43;;
4921;SDS011;16625;53.624;10.106;2023-06-04T05:06:49;5.67;;;2.53;;
4921;SDS011;16625;53.624;10.106;2023-06-04T05:09:16;10.20;;;4.03;;
4921;SDS011;16625;53.624;10.106;2023-06-04T05:11:43;5.20;;;3.40;;
4921;SDS011;16625;53.624;10.106;2023-06-04T05:14:09;10.63;;;3.27;;
4921;SDS011;16625;53.624;10.106;2023-06-04T05:16:37;10.10;;;3.90;;
4921;SDS011;16625;53.624;10.106;2023-06-04T05:19:07;7.23;;;3.50;;
4921;SDS011;16625;53.624;10.106;2023-06-04T05:21:36;6.77;;;3.37;;
4921;SDS011;16625;53.624;10.106;2023-06-04T05:24:02;5.33;;;3.70;;
4921;SDS011;16625;53.624;10.106;2023-06-04T05:26:30;6.53;;;3.00;;
4921;SDS011;16625;53.624;10.106;2023-06-04T05:28:58;5.33;;;3.60;;
4921;SDS011;16625;53.624;10.106;2023-06-04T05:31:25;5.67;;;3.40;;
4921;SDS011;16625;53.624;10.106;2023-06-04T05:33:52;8.33;;;3.43;;
4921;SDS011;16625;53.624;10.106;2023-06-04T05:36:21;14.60;;;3.90;;
4921;SDS011;16625;53.624;10.106;2023-06-04T05:38:48;10.00;;;3.53;;
4921;SDS011;16625;53.624;10.106;2023-06-04T05:41:22;5.37;;;4.10;;
4921;SDS011;16625;53.624;10.106;2023-06-04T05:43:50;5.67;;;3.03;;
4921;SDS011;16625;53.624;10.106;2023-06-04T05:46:17;7.07;;;3.47;;
4921;SDS011;16625;53.624;10.106;2023-06-04T05:48:44;6.90;;;3.70;;
4921;SDS011;16625;53.624;10.106;2023-06-04T05:51:12;10.60;;;3.90;;
4921;SDS011;16625;53.624;10.106;2023-06-04T05:53:41;6.20;;;2.80;;
4921;SDS011;16625;53.624;10.106;2023-06-04T05:56:08;8.30;;;3.57;;
4921;SDS011;16625;53.624;10.106;2023-06-04T05:58:35;12.93;;;3.77;;
4921;SDS011;16625;53.624;10.106;2023-06-04T06:01:02;5.60;;;3.00;;
4921;SDS011;16625;53.624;10.106;2023-06-04T06:03:29;5.63;;;2.67;;
4921;SDS011;16625;53.624;10.106;2023-06-04T06:05:56;11.70;;;4.00;;
4921;SDS011;16625;53.624;10.106;2023-06-04T06:08:25;13.27;;;2.53;;
4921;SDS011;16625;53.624;10.106;2023-06-04T06:10:54;12.47;;;3.60;;
4921;SDS011;16625;53.624;10.106;2023-06-04T06:13:20;8.33;;;3.43;;
4921;SDS011;16625;53.624;10.106;2023-06-04T06:15:47;10.73;;;3.23;;
4921;SDS011;16625;53.624;10.106;2023-06-04T06:18:14;3.53;;;2.30;;
4921;SDS011;16625;53.624;10.106;2023-06-04T06:20:41;11.17;;;2.83;;
4921;SDS011;16625;53.624;10.106;2023-06-04T06:23:08;5.53;;;2.43;;
4921;SDS011;16625;53.624;10.106;2023-06-04T06:25:35;7.83;;;3.20;;
4921;SDS011;16625;53.624;10.106;2023-06-04T06:28:04;6.93;;;2.80;;
4921;SDS011;16625;53.624;10.106;2023-06-04T06:30:31;16.93;;;3.30;;
4921;SDS011;16625;53.624;10.106;2023-06-04T06:32:58;4.37;;;2.70;;
4921;SDS011;16625;53.624;10.106;2023-06-04T06:35:25;5.83;;;2.50;;
4921;SDS011;16625;53.624;10.106;2023-06-04T06:37:52;5.40;;;2.03;;
4921;SDS011;16625;53.624;10.106;2023-06-04T06:40:19;6.43;;;2.97;;
4921;SDS011;16625;53.624;10.106;2023-06-04T06:42:47;23.00;;;3.43;;
4921;SDS011;16625;53.624;10.106;2023-06-04T06:45:17;6.33;;;3.40;;
4921;SDS011;16625;53.624;10.106;2023-06-04T06:47:45;4.07;;;2.90;;
4921;SDS011;16625;53.624;10.106;2023-06-04T06:50:11;12.57;;;3.23;;
4921;SDS011;16625;53.624;10.106;2023-06-04T06:52:39;10.30;;;3.10;;
4921;SDS011;16625;53.624;10.106;2023-06-04T06:55:06;9.03;;;2.60;;
4921;SDS011;16625;53.624;10.106;2023-06-04T06:57:33;5.70;;;2.80;;
4921;SDS011;16625;53.624;10.106;2023-06-04T07:00:00;8.17;;;3.23;;
4921;SDS011;16625;53.624;10.106;2023-06-04T07:02:29;6.93;;;2.57;;
4921;SDS011;16625;53.624;10.106;2023-06-04T07:04:56;6.63;;;2.50;;
4921;SDS011;16625;53.624;10.106;2023-06-04T07:07:22;6.20;;;2.47;;
4921;SDS011;16625;53.624;10.106;2023-06-04T07:09:49;10.27;;;3.43;;
4921;SDS011;16625;53.624;10.106;2023-06-04T07:12:16;5.27;;;2.33;;
4921;SDS011;16625;53.624;10.106;2023-06-04T07:14:43;12.03;;;2.47;;
4921;SDS011;16625;53.624;10.106;2023-06-04T07:17:11;5.43;;;2.40;;
4921;SDS011;16625;53.624;10.106;2023-06-04T07:19:39;5.90;;;2.23;;
4921;SDS011;16625;53.624;10.106;2023-06-04T07:22:06;4.63;;;2.53;;
4921;SDS011;16625;53.624;10.106;2023-06-04T07:24:33;6.07;;;3.47;;
4921;SDS011;16625;53.624;10.106;2023-06-04T07:27:00;8.23;;;2.70;;
4921;SDS011;16625;53.624;10.106;2023-06-04T07:29:27;9.80;;;2.50;;
4921;SDS011;16625;53.624;10.106;2023-06-04T07:31:54;6.80;;;2.97;;
4921;SDS011;16625;53.624;10.106;2023-06-04T07:34:20;4.90;;;2.80;;
4921;SDS011;16625;53.624;10.106;2023-06-04T07:36:49;8.60;;;2.93;;
4921;SDS011;16625;53.624;10.106;2023-06-04T07:39:16;6.30;;;2.70;;
4921;SDS011;16625;53.624;10.106;2023-06-04T07:41:42;3.60;;;2.27;;
4921;SDS011;16625;53.624;10.106;2023-06-04T07:44:09;4.10;;;2.33;;
4921;SDS011;16625;53.624;10.106;2023-06-04T07:46:36;4.27;;;3.00;;
4921;SDS011;16625;53.624;10.106;2023-06-04T07:49:03;7.57;;;2.93;;
4921;SDS011;16625;53.624;10.106;2023-06-04T07:51:30;7.83;;;2.60;;
4921;SDS011;16625;53.624;10.106;2023-06-04T07:53:58;6.13;;;2.77;;
4921;SDS011;16625;53.624;10.106;2023-06-04T07:56:25;7.00;;;2.60;;
4921;SDS011;16625;53.624;10.106;2023-06-04T07:58:53;5.17;;;2.10;;
4921;SDS011;16625;53.624;10.106;2023-06-04T08:01:20;6.80;;;2.47;;
4921;SDS011;16625;53.624;10.106;2023-06-04T08:03:48;5.60;;;2.57;;
4921;SDS011;16625;53.624;10.106;2023-06-04T08:06:16;4.90;;;2.30;;
4921;SDS011;16625;53.624;10.106;2023-06-04T08:08:43;4.80;;;2.70;;
4921;SDS011;16625;53.624;10.106;2023-06-04T08:11:12;5.20;;;2.30;;
4921;SDS011;16625;53.624;10.106;2023-06-04T08:13:41;5.80;;;2.30;;
4921;SDS011;16625;53.624;10.106;2023-06-04T08:16:08;4.70;;;2.37;;
4921;SDS011;16625;53.624;10.106;2023-06-04T08:18:37;6.10;;;2.80;;
4921;SDS011;16625;53.624;10.106;2023-06-04T08:21:04;5.40;;;2.47;;
4921;SDS011;16625;53.624;10.106;2023-06-04T08:23:31;7.30;;;2.60;;
4921;SDS011;16625;53.624;10.106;2023-06-04T08:25:58;4.13;;;2.40;;
4921;SDS011;16625;53.624;10.106;2023-06-04T08:28:29;3.47;;;2.50;;
4921;SDS011;16625;53.624;10.106;2023-06-04T08:30:56;4.53;;;2.80;;
4921;SDS011;16625;53.624;10.106;2023-06-04T08:33:23;4.53;;;2.53;;
4921;SDS011;16625;53.624;10.106;2023-06-04T08:35:50;7.83;;;2.40;;
4921;SDS011;16625;53.624;10.106;2023-06-04T08:38:17;5.97;;;2.83;;
4921;SDS011;16625;53.624;10.106;2023-06-04T08:40:44;5.63;;;2.93;;
4921;SDS011;16625;53.624;10.106;2023-06-04T08:43:11;4.17;;;2.43;;
4921;SDS011;16625;53.624;10.106;2023-06-04T08:45:40;6.47;;;2.77;;
4921;SDS011;16625;53.624;10.106;2023-06-04T08:48:11;5.60;;;2.60;;
4921;SDS011;16625;53.624;10.106;2023-06-04T08:50:39;5.77;;;2.53;;
4921;SDS011;16625;53.624;10.106;2023-06-04T08:53:10;5.43;;;2.90;;
4921;SDS011;16625;53.624;10.106;2023-06-04T08:55:39;4.63;;;2.40;;
4921;SDS011;16625;53.624;10.106;2023-06-04T08:58:07;5.93;;;2.33;;
4921;SDS011;16625;53.624;10.106;2023-06-04T09:00:36;3.67;;;2.17;;
4921;SDS011;16625;53.624;10.106;2023-06-04T09:03:05;4.40;;;2.43;;
4921;SDS011;16625;53.624;10.106;2023-06-04T09:05:32;6.53;;;2.37;;
4921;SDS011;16625;53.624;10.106;2023-06-04T09:08:01;5.37;;;2.33;;
4921;SDS011;16625;53.624;10.106;2023-06-04T09:10:30;4.53;;;2.20;;
4921;SDS011;16625;53.624;10.106;2023-06-04T09:13:01;4.13;;;1.83;;
4921;SDS011;16625;53.624;10.106;2023-06-04T09:15:29;5.47;;;2.57;;
4921;SDS011;16625;53.624;10.106;2023-06-04T09:17:56;6.57;;;2.43;;
4921;SDS011;16625;53.624;10.106;2023-06-04T09:20:24;3.40;;;2.30;;
4921;SDS011;16625;53.624;10.106;2023-06-04T09:22:51;5.60;;;2.53;;
4921;SDS011;16625;53.624;10.106;2023-06-04T09:31:14;7.20;;;2.27;;
4921;SDS011;16625;53.624;10.106;2023-06-04T09:33:54;6.20;;;2.07;;
4921;SDS011;16625;53.624;10.106;2023-06-04T09:36:29;6.63;;;2.50;;
4921;SDS011;16625;53.624;10.106;2023-06-04T09:39:13;7.93;;;2.47;;
4921;SDS011;16625;53.624;10.106;2023-06-04T09:41:56;5.93;;;2.20;;
4921;SDS011;16625;53.624;10.106;2023-06-04T09:44:25;3.20;;;2.17;;
4921;SDS011;16625;53.624;10.106;2023-06-04T09:46:55;3.80;;;2.03;;
4921;SDS011;16625;53.624;10.106;2023-06-04T09:49:22;5.20;;;2.60;;
4921;SDS011;16625;53.624;10.106;2023-06-04T09:51:51;4.53;;;2.27;;
4921;SDS011;16625;53.624;10.106;2023-06-04T09:54:18;5.37;;;2.07;;
4921;SDS011;16625;53.624;10.106;2023-06-04T09:56:45;4.40;;;2.20;;
4921;SDS011;16625;53.624;10.106;2023-06-04T09:59:12;3.70;;;2.40;;
4921;SDS011;16625;53.624;10.106;2023-06-04T10:01:40;3.10;;;2.10;;
4921;SDS011;16625;53.624;10.106;2023-06-04T10:04:08;4.93;;;2.10;;
4921;SDS011;16625;53.624;10.106;2023-06-04T10:06:37;3.80;;;2.17;;
4921;SDS011;16625;53.624;10.106;2023-06-04T10:09:07;3.50;;;1.97;;
4921;SDS011;16625;53.624;10.106;2023-06-04T10:11:35;3.60;;;1.90;;
4921;SDS011;16625;53.624;10.106;2023-06-04T10:14:06;5.77;;;2.03;;
4921;SDS011;16625;53.624;10.106;2023-06-04T10:16:41;5.03;;;2.20;;
4921;SDS011;16625;53.624;10.106;2023-06-04T10:19:08;3.33;;;1.93;;
4921;SDS011;16625;53.624;10.106;2023-06-04T10:21:36;4.20;;;2.00;;
4921;SDS011;16625;53.624;10.106;2023-06-04T10:24:04;5.13;;;1.90;;
4921;SDS011;16625;53.624;10.106;2023-06-04T10:26:33;3.13;;;2.00;;
4921;SDS011;16625;53.624;10.106;2023-06-04T10:29:01;3.00;;;2.07;;
4921;SDS011;16625;53.624;10.106;2023-06-04T10:31:29;3.40;;;2.07;;
4921;SDS011;16625;53.624;10.106;2023-06-04T10:33:56;7.13;;;2.50;;
4921;SDS011;16625;53.624;10.106;2023-06-04T10:36:24;3.40;;;2.07;;
4921;SDS011;16625;53.624;10.106;2023-06-04T10:38:51;7.90;;;2.10;;
4921;SDS011;16625;53.624;10.106;2023-06-04T10:41:19;4.13;;;2.20;;
4921;SDS011;16625;53.624;10.106;2023-06-04T10:43:49;3.20;;;1.90;;
4921;SDS011;16625;53.624;10.106;2023-06-04T10:46:17;6.23;;;2.43;;
4921;SDS011;16625;53.624;10.106;2023-06-04T10:48:45;4.63;;;2.30;;
4921;SDS011;16625;53.624;10.106;2023-06-04T10:51:15;3.80;;;2.10;;
4921;SDS011;16625;53.624;10.106;2023-06-04T10:53:43;5.23;;;2.47;;
4921;SDS011;16625;53.624;10.106;2023-06-04T10:56:10;5.90;;;2.77;;
4921;SDS011;16625;53.624;10.106;2023-06-04T10:58:37;4.03;;;2.43;;
4921;SDS011;16625;53.624;10.106;2023-06-04T11:01:05;3.33;;;2.10;;
4921;SDS011;16625;53.624;10.106;2023-06-04T11:03:35;4.27;;;2.10;;
4921;SDS011;16625;53.624;10.106;2023-06-04T11:06:02;3.20;;;2.10;;
4921;SDS011;16625;53.624;10.106;2023-06-04T11:08:40;4.47;;;2.10;;
4921;SDS011;16625;53.624;10.106;2023-06-04T11:11:10;3.37;;;2.07;;
4921;SDS011;16625;53.624;10.106;2023-06-04T11:13:37;4.10;;;2.30;;
4921;SDS011;16625;53.624;10.106;2023-06-04T11:16:13;4.20;;;2.40;;
4921;SDS011;16625;53.624;10.106;2023-06-04T11:18:42;3.60;;;2.40;;
4921;SDS011;16625;53.624;10.106;2023-06-04T11:21:09;4.07;;;2.00;;
4921;SDS011;16625;53.624;10.106;2023-06-04T11:23:39;4.80;;;2.53;;
4921;SDS011;16625;53.624;10.106;2023-06-04T11:26:07;3.80;;;2.07;;
4921;SDS011;16625;53.624;10.106;2023-06-04T11:28:34;3.90;;;2.20;;
4921;SDS011;16625;53.624;10.106;2023-06-04T11:31:01;6.10;;;2.40;;
4921;SDS011;16625;53.624;10.106;2023-06-04T11:33:40;3.93;;;1.90;;
4921;SDS011;16625;53.624;10.106;2023-06-04T11:36:08;3.67;;;2.20;;
4921;SDS011;16625;53.624;10.106;2023-06-04T11:38:35;3.60;;;2.00;;
4921;SDS011;16625;53.624;10.106;2023-06-04T11:41:02;4.50;;;2.20;;
4921;SDS011;16625;53.624;10.106;2023-06-04T11:43:31;4.83;;;1.80;;
4921;SDS011;16625;53.624;10.106;2023-06-04T11:46:00;3.87;;;2.20;;
4921;SDS011;16625;53.624;10.106;2023-06-04T11:48:33;3.20;;;2.00;;
4921;SDS011;16625;53.624;10.106;2023-06-04T11:51:04;4.07;;;2.43;;
4921;SDS011;16625;53.624;10.106;2023-06-04T11:53:34;3.70;;;2.63;;
4921;SDS011;16625;53.624;10.106;2023-06-04T11:56:02;6.10;;;1.93;;
4921;SDS011;16625;53.624;10.106;2023-06-04T11:58:30;4.27;;;2.60;;
4921;SDS011;16625;53.624;10.106;2023-06-04T12:00:58;7.37;;;2.10;;
4921;SDS011;16625;53.624;10.106;2023-06-04T12:03:36;2.87;;;1.87;;
4921;SDS011;16625;53.624;10.106;2023-06-04T12:06:11;4.77;;;2.10;;
4921;SDS011;16625;53.624;10.106;2023-06-04T12:08:48;4.80;;;2.40;;
4921;SDS011;16625;53.624;10.106;2023-06-04T12:11:26;4.00;;;2.53;;
4921;SDS011;16625;53.624;10.106;2023-06-04T12:13:56;3.40;;;1.93;;
4921;SDS011;16625;53.624;10.106;2023-06-04T12:16:24;9.93;;;1.97;;
4921;SDS011;16625;53.624;10.106;2023-06-04T12:18:52;5.00;;;2.20;;
4921;SDS011;16625;53.624;10.106;2023-06-04T12:21:31;4.60;;;2.03;;
4921;SDS011;16625;53.624;10.106;2023-06-04T12:24:05;4.60;;;2.50;;
4921;SDS011;16625;53.624;10.106;2023-06-04T12:26:33;5.27;;;2.50;;
4921;SDS011;16625;53.624;10.106;2023-06-04T12:29:06;5.60;;;2.80;;
4921;SDS011;16625;53.624;10.106;2023-06-04T12:31:35;3.60;;;2.30;;
4921;SDS011;16625;53.624;10.106;2023-06-04T12:34:03;7.00;;;2.40;;
4921;SDS011;16625;53.624;10.106;2023-06-04T12:36:30;3.93;;;2.10;;
4921;SDS011;16625;53.624;10.106;2023-06-04T12:38:59;4.20;;;2.20;;
4921;SDS011;16625;53.624;10.106;2023-06-04T12:41:27;3.73;;;2.60;;
4921;SDS011;16625;53.624;10.106;2023-06-04T12:43:54;3.60;;;2.20;;
4921;SDS011;16625;53.624;10.106;2023-06-04T12:46:21;3.80;;;2.30;;
4921;SDS011;16625;53.624;10.106;2023-06-04T12:48:49;6.10;;;2.63;;
4921;SDS011;16625;53.624;10.106;2023-06-04T12:51:18;8.70;;;2.30;;
4921;SDS011;16625;53.624;10.106;2023-06-04T12:53:45;3.33;;;2.23;;
4921;SDS011;16625;53.624;10.106;2023-06-04T12:56:12;3.60;;;2.13;;
4921;SDS011;16625;53.624;10.106;2023-06-04T12:58:39;9.67;;;2.73;;
4921;SDS011;16625;53.624;10.106;2023-06-04T13:01:06;3.73;;;2.10;;
4921;SDS011;16625;53.624;10.106;2023-06-04T13:03:34;5.37;;;2.30;;
4921;SDS011;16625;53.624;10.106;2023-06-04T13:06:03;9.88;;;2.58;;
4921;SDS011;16625;53.624;10.106;2023-06-04T13:08:32;10.53;;;2.70;;
4921;SDS011;16625;53.624;10.106;2023-06-04T13:10:59;4.30;;;2.20;;
4921;SDS011;16625;53.624;10.106;2023-06-04T13:13:26;3.38;;;2.10;;
4921;SDS011;16625;53.624;10.106;2023-06-04T13:15:54;8.00;;;2.33;;
4921;SDS011;16625;53.624;10.106;2023-06-04T13:18:21;5.70;;;2.57;;
4921;SDS011;16625;53.624;10.106;2023-06-04T13:20:47;6.03;;;2.00;;
4921;SDS011;16625;53.624;10.106;2023-06-04T13:23:15;4.73;;;2.63;;
4921;SDS011;16625;53.624;10.106;2023-06-04T13:25:43;3.83;;;2.30;;
4921;SDS011;16625;53.624;10.106;2023-06-04T13:28:10;4.77;;;2.50;;
4921;SDS011;16625;53.624;10.106;2023-06-04T13:30:37;3.80;;;2.10;;
4921;SDS011;16625;53.624;10.106;2023-06-04T13:33:05;6.67;;;2.27;;
4921;SDS011;16625;53.624;10.106;2023-06-04T13:35:32;4.23;;;2.03;;
4921;SDS011;16625;53.624;10.106;2023-06-04T13:37:59;6.07;;;2.07;;
4921;SDS011;16625;53.624;10.106;2023-06-04T13:40:26;6.13;;;2.50;;
4921;SDS011;16625;53.624;10.106;2023-06-04T13:42:54;4.73;;;2.47;;
4921;SDS011;16625;53.624;10.106;2023-06-04T13:45:21;4.93;;;2.05;;
4921;SDS011;16625;53.624;10.106;2023-06-04T13:47:48;3.20;;;1.98;;
4921;SDS011;16625;53.624;10.106;2023-06-04T13:50:15;6.10;;;2.50;;
4921;SDS011;16625;53.624;10.106;2023-06-04T13:52:42;3.15;;;2.00;;
4921;SDS011;16625;53.624;10.106;2023-06-04T13:55:09;6.53;;;2.77;;
4921;SDS011;16625;53.624;10.106;2023-06-04T13:57:37;5.00;;;2.30;;
4921;SDS011;16625;53.624;10.106;2023-06-04T14:00:07;5.15;;;2.22;;
4921;SDS011;16625;53.624;10.106;2023-06-04T14:02:34;5.27;;;2.57;;
4921;SDS011;16625;53.624;10.106;2023-06-04T14:05:01;6.63;;;2.35;;
4921;SDS011;16625;53.624;10.106;2023-06-04T14:07:28;3.70;;;2.30;;
4921;SDS011;16625;53.624;10.106;2023-06-04T14:09:55;3.38;;;1.98;;
4921;SDS011;16625;53.624;10.106;2023-06-04T14:12:22;3.10;;;1.97;;
4921;SDS011;16625;53.624;10.106;2023-06-04T14:14:49;5.87;;;2.27;;
4921;SDS011;16625;53.624;10.106;2023-06-04T14:17:17;4.23;;;2.70;;
4921;SDS011;16625;53.624;10.106;2023-06-04T14:19:44;5.85;;;2.58;;
4921;SDS011;16625;53.624;10.106;2023-06-04T14:22:11;3.30;;;2.37;;
4921;SDS011;16625;53.624;10.106;2023-06-04T14:24:39;4.67;;;2.40;;
4921;SDS011;16625;53.624;10.106;2023-06-04T14:27:06;3.37;;;2.20;;
4921;SDS011;16625;53.624;10.106;2023-06-04T14:29:34;5.10;;;2.07;;
4921;SDS011;16625;53.624;10.106;2023-06-04T14:32:01;4.10;;;2.30;;
4921;SDS011;16625;53.624;10.106;2023-06-04T14:34:30;5.60;;;2.33;;
4921;SDS011;16625;53.624;10.106;2023-06-04T14:36:57;3.40;;;2.10;;
4921;SDS011;16625;53.624;10.106;2023-06-04T14:39:25;6.07;;;2.73;;
4921;SDS011;16625;53.624;10.106;2023-06-04T14:41:52;2.90;;;1.90;;
4921;SDS011;16625;53.624;10.106;2023-06-04T14:44:19;3.83;;;2.30;;
4921;SDS011;16625;53.624;10.106;2023-06-04T14:46:46;3.47;;;1.88;;
4921;SDS011;16625;53.624;10.106;2023-06-04T14:49:14;6.33;;;2.47;;
4921;SDS011;16625;53.624;10.106;2023-06-04T14:51:42;3.73;;;2.20;;
4921;SDS011;16625;53.624;10.106;2023-06-04T14:54:09;3.47;;;2.17;;
4921;SDS011;16625;53.624;10.106;2023-06-04T14:56:36;4.33;;;2.37;;
4921;SDS011;16625;53.624;10.106;2023-06-04T14:59:03;4.53;;;2.53;;